HKW weather

Edificio Viviendas 1 & 2
Miguel Hidalgo, Distrito Federal, Mexico

Public forecast

Using degrees Celsius for public forecast. Weather courtesy of forecast.io.

METAR (pilot weather report)

Closest report is Licenciado Benito Juarez International Airport, 7.5 nm (13.9 km) E. Retrieved 2019/06/19 22:45 UTC (27 minutes ago):

MMMX 192245Z 25005KT 7SM BKN020CB BKN080 OVC200 24/09 A3025 NOSIG RMK 8/963 HZY BINOVC

TAF (pilot weather forecast)

Closest forecast is Licenciado Benito Juarez International Airport, 7.5 nm (13.9 km) E. Retrieved 2019/06/19 18:41 UTC (5 hours ago):

TAF MMMX 191636Z 1918/2024 05008KT 6SM HZ SCT030 BKN100 TX26/1921Z TN16/2012Z FM192100 04010G20KT 6SM HZ BKN030 BKN120 TEMPO 1922/2002 4SM TSRA OVC018CB FM200200 04008KT 5SM HZ -RA BKN020 OVC080 VC CB FM200600 00000KT 6SM HZ SCT020 BKN080 FM201600 04006KT 6SM HZ SCT020 BKN090 FM202100 04010G20KT 6SM HZ BKN025CB TEMPO 2022/2024 4SM TSRA BKN020CB